Terminal Aerodrome Forecast
Issued by NWS Caribou, ME

Home | Current Version | Previous Version | Text Only | Print | Product List | Glossary On
Versions: 1 2 3 4 5 6 7 8 9 10 11 12 13 14 15 16 17 18 19 20 21 22 23 24 25 26
000
FTUS41 KCAR 171923 AAA
TAFCAR
TAF AMD
KCAR 171923Z 1719/1818 05005KT 2SM -SN BR OVC010
     FM172100 03005KT 2SM -SN BR OVC005
     FM180300 36013G23KT 1SM -SN BR OVC003=

USA.gov is the U.S. government's official web portal to all federal, state and local government web resources and services.